sensor_id;sensor_type;location;lat;lon;timestamp;P1;durP1;ratioP1;P2;durP2;ratioP2
71836;SDS011;59686;51.716;7.016;2022-07-23T00:02:05;3.78;;;2.10;;
71836;SDS011;59686;51.716;7.016;2022-07-23T00:04:32;4.38;;;2.05;;
71836;SDS011;59686;51.716;7.016;2022-07-23T00:06:58;2.28;;;2.00;;
71836;SDS011;59686;51.716;7.016;2022-07-23T00:09:23;2.38;;;1.92;;
71836;SDS011;59686;51.716;7.016;2022-07-23T00:11:49;2.55;;;2.00;;
71836;SDS011;59686;51.716;7.016;2022-07-23T00:14:20;4.32;;;2.20;;
71836;SDS011;59686;51.716;7.016;2022-07-23T00:16:45;5.57;;;2.45;;
71836;SDS011;59686;51.716;7.016;2022-07-23T00:19:11;2.92;;;2.22;;
71836;SDS011;59686;51.716;7.016;2022-07-23T00:21:37;3.03;;;2.00;;
71836;SDS011;59686;51.716;7.016;2022-07-23T00:24:02;2.47;;;1.98;;
71836;SDS011;59686;51.716;7.016;2022-07-23T00:26:28;3.03;;;1.90;;
71836;SDS011;59686;51.716;7.016;2022-07-23T00:28:58;3.33;;;2.20;;
71836;SDS011;59686;51.716;7.016;2022-07-23T00:31:24;2.85;;;2.38;;
71836;SDS011;59686;51.716;7.016;2022-07-23T00:33:50;2.90;;;2.25;;
71836;SDS011;59686;51.716;7.016;2022-07-23T00:36:20;3.53;;;2.20;;
71836;SDS011;59686;51.716;7.016;2022-07-23T00:38:46;4.70;;;2.30;;
71836;SDS011;59686;51.716;7.016;2022-07-23T00:41:12;3.15;;;2.05;;
71836;SDS011;59686;51.716;7.016;2022-07-23T00:43:37;2.83;;;2.35;;
71836;SDS011;59686;51.716;7.016;2022-07-23T00:46:03;3.35;;;2.08;;
71836;SDS011;59686;51.716;7.016;2022-07-23T00:48:29;3.33;;;2.10;;
71836;SDS011;59686;51.716;7.016;2022-07-23T00:50:54;3.65;;;2.42;;
71836;SDS011;59686;51.716;7.016;2022-07-23T00:53:20;2.80;;;2.10;;
71836;SDS011;59686;51.716;7.016;2022-07-23T00:55:46;2.35;;;2.00;;
71836;SDS011;59686;51.716;7.016;2022-07-23T00:58:12;3.40;;;2.03;;
71836;SDS011;59686;51.716;7.016;2022-07-23T01:00:38;3.40;;;2.38;;
71836;SDS011;59686;51.716;7.016;2022-07-23T01:03:04;2.53;;;2.03;;
71836;SDS011;59686;51.716;7.016;2022-07-23T01:05:30;2.92;;;2.17;;
71836;SDS011;59686;51.716;7.016;2022-07-23T01:07:55;3.38;;;2.42;;
71836;SDS011;59686;51.716;7.016;2022-07-23T01:10:21;3.78;;;2.05;;
71836;SDS011;59686;51.716;7.016;2022-07-23T01:13:07;2.20;;;2.00;;
71836;SDS011;59686;51.716;7.016;2022-07-23T01:15:34;3.92;;;2.13;;
71836;SDS011;59686;51.716;7.016;2022-07-23T01:18:02;4.78;;;2.25;;
71836;SDS011;59686;51.716;7.016;2022-07-23T01:20:30;3.35;;;2.22;;
71836;SDS011;59686;51.716;7.016;2022-07-23T01:22:57;2.60;;;2.22;;
71836;SDS011;59686;51.716;7.016;2022-07-23T01:25:23;2.88;;;2.00;;
71836;SDS011;59686;51.716;7.016;2022-07-23T01:27:50;3.65;;;2.28;;
71836;SDS011;59686;51.716;7.016;2022-07-23T01:30:19;4.13;;;2.60;;
71836;SDS011;59686;51.716;7.016;2022-07-23T01:32:45;3.20;;;2.53;;
71836;SDS011;59686;51.716;7.016;2022-07-23T01:35:11;3.33;;;2.35;;
71836;SDS011;59686;51.716;7.016;2022-07-23T01:37:37;4.07;;;2.22;;
71836;SDS011;59686;51.716;7.016;2022-07-23T01:40:03;2.55;;;2.17;;
71836;SDS011;59686;51.716;7.016;2022-07-23T01:42:30;2.47;;;2.28;;
71836;SDS011;59686;51.716;7.016;2022-07-23T01:44:55;3.33;;;2.10;;
71836;SDS011;59686;51.716;7.016;2022-07-23T01:47:21;3.03;;;2.13;;
71836;SDS011;59686;51.716;7.016;2022-07-23T01:49:48;2.30;;;2.10;;
71836;SDS011;59686;51.716;7.016;2022-07-23T01:52:14;2.42;;;2.10;;
71836;SDS011;59686;51.716;7.016;2022-07-23T01:54:39;3.53;;;2.15;;
71836;SDS011;59686;51.716;7.016;2022-07-23T01:57:05;2.60;;;2.40;;
71836;SDS011;59686;51.716;7.016;2022-07-23T01:59:32;4.82;;;2.03;;
71836;SDS011;59686;51.716;7.016;2022-07-23T02:01:57;3.28;;;2.08;;
71836;SDS011;59686;51.716;7.016;2022-07-23T02:04:24;3.20;;;2.33;;
71836;SDS011;59686;51.716;7.016;2022-07-23T02:06:50;3.92;;;2.28;;
71836;SDS011;59686;51.716;7.016;2022-07-23T02:09:16;3.75;;;2.33;;
71836;SDS011;59686;51.716;7.016;2022-07-23T02:11:42;3.08;;;2.25;;
71836;SDS011;59686;51.716;7.016;2022-07-23T02:14:08;3.20;;;2.10;;
71836;SDS011;59686;51.716;7.016;2022-07-23T02:16:33;3.35;;;2.40;;
71836;SDS011;59686;51.716;7.016;2022-07-23T02:18:59;2.95;;;2.45;;
71836;SDS011;59686;51.716;7.016;2022-07-23T02:21:25;3.03;;;2.17;;
71836;SDS011;59686;51.716;7.016;2022-07-23T02:23:50;2.90;;;1.95;;
71836;SDS011;59686;51.716;7.016;2022-07-23T02:26:16;3.35;;;2.33;;
71836;SDS011;59686;51.716;7.016;2022-07-23T02:28:42;3.47;;;2.15;;
71836;SDS011;59686;51.716;7.016;2022-07-23T02:31:07;3.20;;;2.33;;
71836;SDS011;59686;51.716;7.016;2022-07-23T02:33:33;3.70;;;2.20;;
71836;SDS011;59686;51.716;7.016;2022-07-23T02:35:59;2.85;;;1.85;;
71836;SDS011;59686;51.716;7.016;2022-07-23T02:38:25;2.63;;;2.42;;
71836;SDS011;59686;51.716;7.016;2022-07-23T02:40:51;3.35;;;2.13;;
71836;SDS011;59686;51.716;7.016;2022-07-23T02:43:17;3.00;;;2.13;;
71836;SDS011;59686;51.716;7.016;2022-07-23T02:45:42;2.80;;;2.20;;
71836;SDS011;59686;51.716;7.016;2022-07-23T02:48:08;2.80;;;2.20;;
71836;SDS011;59686;51.716;7.016;2022-07-23T02:50:34;2.40;;;2.20;;
71836;SDS011;59686;51.716;7.016;2022-07-23T02:52:59;2.80;;;2.17;;
71836;SDS011;59686;51.716;7.016;2022-07-23T02:55:25;3.85;;;2.40;;
71836;SDS011;59686;51.716;7.016;2022-07-23T02:57:51;3.78;;;2.20;;
71836;SDS011;59686;51.716;7.016;2022-07-23T03:00:18;2.28;;;1.98;;
71836;SDS011;59686;51.716;7.016;2022-07-23T03:02:43;2.70;;;2.30;;
71836;SDS011;59686;51.716;7.016;2022-07-23T03:05:09;3.40;;;2.10;;
71836;SDS011;59686;51.716;7.016;2022-07-23T03:07:35;2.47;;;2.28;;
71836;SDS011;59686;51.716;7.016;2022-07-23T03:10:01;2.92;;;2.38;;
71836;SDS011;59686;51.716;7.016;2022-07-23T03:12:27;2.95;;;2.00;;
71836;SDS011;59686;51.716;7.016;2022-07-23T03:14:53;4.10;;;2.17;;
71836;SDS011;59686;51.716;7.016;2022-07-23T03:17:19;2.60;;;2.40;;
71836;SDS011;59686;51.716;7.016;2022-07-23T03:19:44;3.10;;;2.00;;
71836;SDS011;59686;51.716;7.016;2022-07-23T03:22:10;2.22;;;2.03;;
71836;SDS011;59686;51.716;7.016;2022-07-23T03:24:36;2.40;;;2.20;;
71836;SDS011;59686;51.716;7.016;2022-07-23T03:27:20;2.45;;;2.25;;
71836;SDS011;59686;51.716;7.016;2022-07-23T03:29:46;4.88;;;2.25;;
71836;SDS011;59686;51.716;7.016;2022-07-23T03:32:16;3.78;;;2.10;;
71836;SDS011;59686;51.716;7.016;2022-07-23T03:34:42;3.80;;;2.13;;
71836;SDS011;59686;51.716;7.016;2022-07-23T03:37:08;3.33;;;2.08;;
71836;SDS011;59686;51.716;7.016;2022-07-23T03:39:34;3.22;;;2.50;;
71836;SDS011;59686;51.716;7.016;2022-07-23T03:41:59;2.63;;;2.28;;
71836;SDS011;59686;51.716;7.016;2022-07-23T03:44:25;2.55;;;2.20;;
71836;SDS011;59686;51.716;7.016;2022-07-23T03:46:51;5.28;;;2.85;;
71836;SDS011;59686;51.716;7.016;2022-07-23T03:49:16;2.33;;;2.13;;
71836;SDS011;59686;51.716;7.016;2022-07-23T03:51:42;2.22;;;2.03;;
71836;SDS011;59686;51.716;7.016;2022-07-23T03:54:08;2.80;;;2.38;;
71836;SDS011;59686;51.716;7.016;2022-07-23T03:56:34;2.60;;;2.40;;
71836;SDS011;59686;51.716;7.016;2022-07-23T03:58:59;3.17;;;2.03;;
71836;SDS011;59686;51.716;7.016;2022-07-23T04:01:26;3.85;;;2.20;;
71836;SDS011;59686;51.716;7.016;2022-07-23T04:03:51;2.33;;;2.10;;
71836;SDS011;59686;51.716;7.016;2022-07-23T04:06:18;2.05;;;1.90;;
71836;SDS011;59686;51.716;7.016;2022-07-23T04:08:45;2.35;;;2.10;;
71836;SDS011;59686;51.716;7.016;2022-07-23T04:11:10;2.50;;;2.30;;
71836;SDS011;59686;51.716;7.016;2022-07-23T04:13:36;2.60;;;2.28;;
71836;SDS011;59686;51.716;7.016;2022-07-23T04:16:02;3.70;;;2.42;;
71836;SDS011;59686;51.716;7.016;2022-07-23T04:18:28;2.72;;;2.00;;
71836;SDS011;59686;51.716;7.016;2022-07-23T04:20:54;5.15;;;2.42;;
71836;SDS011;59686;51.716;7.016;2022-07-23T04:23:20;2.50;;;2.20;;
71836;SDS011;59686;51.716;7.016;2022-07-23T04:25:46;3.53;;;2.35;;
71836;SDS011;59686;51.716;7.016;2022-07-23T04:28:12;5.40;;;2.22;;
71836;SDS011;59686;51.716;7.016;2022-07-23T04:30:37;2.35;;;2.00;;
71836;SDS011;59686;51.716;7.016;2022-07-23T04:33:03;2.17;;;1.98;;
71836;SDS011;59686;51.716;7.016;2022-07-23T04:35:35;2.20;;;2.00;;
71836;SDS011;59686;51.716;7.016;2022-07-23T04:38:02;2.22;;;1.90;;
71836;SDS011;59686;51.716;7.016;2022-07-23T04:40:28;2.35;;;1.73;;
71836;SDS011;59686;51.716;7.016;2022-07-23T04:42:54;2.13;;;1.98;;
71836;SDS011;59686;51.716;7.016;2022-07-23T04:45:21;2.03;;;1.80;;
71836;SDS011;59686;51.716;7.016;2022-07-23T04:47:48;2.25;;;2.05;;
71836;SDS011;59686;51.716;7.016;2022-07-23T04:50:14;2.17;;;1.92;;
71836;SDS011;59686;51.716;7.016;2022-07-23T04:52:44;2.15;;;1.90;;
71836;SDS011;59686;51.716;7.016;2022-07-23T04:55:10;2.30;;;1.95;;
71836;SDS011;59686;51.716;7.016;2022-07-23T04:57:36;2.17;;;1.90;;
71836;SDS011;59686;51.716;7.016;2022-07-23T05:00:02;2.13;;;1.92;;
71836;SDS011;59686;51.716;7.016;2022-07-23T05:02:29;3.25;;;1.83;;
71836;SDS011;59686;51.716;7.016;2022-07-23T05:04:55;2.30;;;2.10;;
71836;SDS011;59686;51.716;7.016;2022-07-23T05:07:20;3.17;;;2.10;;
71836;SDS011;59686;51.716;7.016;2022-07-23T05:09:46;2.47;;;2.00;;
71836;SDS011;59686;51.716;7.016;2022-07-23T05:12:12;2.10;;;1.90;;
71836;SDS011;59686;51.716;7.016;2022-07-23T05:14:37;2.05;;;1.95;;
71836;SDS011;59686;51.716;7.016;2022-07-23T05:17:03;2.20;;;2.00;;
71836;SDS011;59686;51.716;7.016;2022-07-23T05:19:28;2.22;;;2.00;;
71836;SDS011;59686;51.716;7.016;2022-07-23T05:21:54;2.55;;;2.20;;
71836;SDS011;59686;51.716;7.016;2022-07-23T05:24:20;2.22;;;2.03;;
71836;SDS011;59686;51.716;7.016;2022-07-23T05:26:45;3.25;;;2.00;;
71836;SDS011;59686;51.716;7.016;2022-07-23T05:29:11;2.25;;;2.05;;
71836;SDS011;59686;51.716;7.016;2022-07-23T05:31:37;2.30;;;2.10;;
71836;SDS011;59686;51.716;7.016;2022-07-23T05:34:02;2.42;;;2.22;;
71836;SDS011;59686;51.716;7.016;2022-07-23T05:36:29;3.03;;;2.38;;
71836;SDS011;59686;51.716;7.016;2022-07-23T05:38:56;3.22;;;2.42;;
71836;SDS011;59686;51.716;7.016;2022-07-23T05:41:22;7.53;;;2.40;;
71836;SDS011;59686;51.716;7.016;2022-07-23T05:43:47;3.65;;;2.33;;
71836;SDS011;59686;51.716;7.016;2022-07-23T05:46:13;2.42;;;2.22;;
71836;SDS011;59686;51.716;7.016;2022-07-23T05:48:39;3.45;;;2.30;;
71836;SDS011;59686;51.716;7.016;2022-07-23T05:51:04;2.40;;;2.20;;
71836;SDS011;59686;51.716;7.016;2022-07-23T05:53:32;4.00;;;2.42;;
71836;SDS011;59686;51.716;7.016;2022-07-23T05:55:59;2.92;;;2.10;;
71836;SDS011;59686;51.716;7.016;2022-07-23T05:58:25;2.42;;;2.22;;
71836;SDS011;59686;51.716;7.016;2022-07-23T06:00:50;2.65;;;2.28;;
71836;SDS011;59686;51.716;7.016;2022-07-23T06:03:16;3.13;;;2.58;;
71836;SDS011;59686;51.716;7.016;2022-07-23T06:05:42;2.80;;;2.53;;
71836;SDS011;59686;51.716;7.016;2022-07-23T06:08:08;4.38;;;2.78;;
71836;SDS011;59686;51.716;7.016;2022-07-23T06:10:33;3.80;;;2.45;;
71836;SDS011;59686;51.716;7.016;2022-07-23T06:12:59;3.15;;;2.35;;
71836;SDS011;59686;51.716;7.016;2022-07-23T06:15:25;3.17;;;2.28;;
71836;SDS011;59686;51.716;7.016;2022-07-23T06:17:51;5.80;;;2.50;;
71836;SDS011;59686;51.716;7.016;2022-07-23T06:20:16;2.50;;;2.30;;
71836;SDS011;59686;51.716;7.016;2022-07-23T06:22:42;4.85;;;2.60;;
71836;SDS011;59686;51.716;7.016;2022-07-23T06:25:14;4.10;;;2.63;;
71836;SDS011;59686;51.716;7.016;2022-07-23T06:27:41;2.78;;;2.42;;
71836;SDS011;59686;51.716;7.016;2022-07-23T06:30:07;2.83;;;2.42;;
71836;SDS011;59686;51.716;7.016;2022-07-23T06:32:33;3.28;;;2.55;;
71836;SDS011;59686;51.716;7.016;2022-07-23T06:34:59;3.63;;;2.60;;
71836;SDS011;59686;51.716;7.016;2022-07-23T06:37:24;3.33;;;2.58;;
71836;SDS011;59686;51.716;7.016;2022-07-23T06:39:50;3.40;;;2.53;;
71836;SDS011;59686;51.716;7.016;2022-07-23T06:42:16;3.15;;;2.53;;
71836;SDS011;59686;51.716;7.016;2022-07-23T06:44:41;3.55;;;2.38;;
71836;SDS011;59686;51.716;7.016;2022-07-23T06:47:07;3.05;;;2.38;;
71836;SDS011;59686;51.716;7.016;2022-07-23T06:49:33;3.15;;;2.38;;
71836;SDS011;59686;51.716;7.016;2022-07-23T06:51:59;4.28;;;2.47;;
71836;SDS011;59686;51.716;7.016;2022-07-23T06:54:24;5.30;;;2.67;;
71836;SDS011;59686;51.716;7.016;2022-07-23T06:56:50;2.70;;;2.50;;
71836;SDS011;59686;51.716;7.016;2022-07-23T06:59:16;4.45;;;2.70;;
71836;SDS011;59686;51.716;7.016;2022-07-23T07:01:42;3.28;;;2.70;;
71836;SDS011;59686;51.716;7.016;2022-07-23T07:04:07;3.20;;;2.60;;
71836;SDS011;59686;51.716;7.016;2022-07-23T07:06:33;3.17;;;2.47;;
71836;SDS011;59686;51.716;7.016;2022-07-23T07:08:59;4.35;;;2.75;;
71836;SDS011;59686;51.716;7.016;2022-07-23T07:11:24;4.15;;;2.65;;
71836;SDS011;59686;51.716;7.016;2022-07-23T07:13:50;3.33;;;2.47;;
71836;SDS011;59686;51.716;7.016;2022-07-23T07:16:16;2.88;;;2.58;;
71836;SDS011;59686;51.716;7.016;2022-07-23T07:18:42;3.83;;;3.33;;
71836;SDS011;59686;51.716;7.016;2022-07-23T07:21:14;2.53;;;2.33;;
71836;SDS011;59686;51.716;7.016;2022-07-23T07:23:40;2.70;;;2.40;;
71836;SDS011;59686;51.716;7.016;2022-07-23T07:26:06;2.80;;;2.40;;
71836;SDS011;59686;51.716;7.016;2022-07-23T07:28:31;5.07;;;2.75;;
71836;SDS011;59686;51.716;7.016;2022-07-23T07:30:57;2.67;;;2.30;;
71836;SDS011;59686;51.716;7.016;2022-07-23T07:33:23;3.33;;;2.70;;
71836;SDS011;59686;51.716;7.016;2022-07-23T07:35:48;3.95;;;2.40;;
71836;SDS011;59686;51.716;7.016;2022-07-23T07:38:14;5.03;;;3.53;;
71836;SDS011;59686;51.716;7.016;2022-07-23T07:40:40;5.85;;;3.00;;
71836;SDS011;59686;51.716;7.016;2022-07-23T07:43:05;4.47;;;2.70;;
71836;SDS011;59686;51.716;7.016;2022-07-23T07:45:31;4.75;;;2.80;;
71836;SDS011;59686;51.716;7.016;2022-07-23T07:47:57;7.82;;;3.13;;
71836;SDS011;59686;51.716;7.016;2022-07-23T07:50:23;3.72;;;2.50;;
71836;SDS011;59686;51.716;7.016;2022-07-23T07:52:49;3.83;;;2.60;;
71836;SDS011;59686;51.716;7.016;2022-07-23T07:55:14;5.18;;;2.63;;
71836;SDS011;59686;51.716;7.016;2022-07-23T07:57:40;5.55;;;2.20;;
71836;SDS011;59686;51.716;7.016;2022-07-23T08:00:07;5.13;;;2.40;;
71836;SDS011;59686;51.716;7.016;2022-07-23T08:02:41;5.32;;;2.30;;
71836;SDS011;59686;51.716;7.016;2022-07-23T08:05:15;3.47;;;2.10;;
71836;SDS011;59686;51.716;7.016;2022-07-23T08:07:44;2.85;;;2.20;;
71836;SDS011;59686;51.716;7.016;2022-07-23T08:10:10;4.30;;;2.30;;
71836;SDS011;59686;51.716;7.016;2022-07-23T08:12:40;3.15;;;2.00;;
71836;SDS011;59686;51.716;7.016;2022-07-23T08:15:11;4.28;;;2.20;;
71836;SDS011;59686;51.716;7.016;2022-07-23T08:17:38;2.38;;;2.17;;
71836;SDS011;59686;51.716;7.016;2022-07-23T08:20:12;3.63;;;2.30;;
71836;SDS011;59686;51.716;7.016;2022-07-23T08:22:45;4.90;;;2.08;;
71836;SDS011;59686;51.716;7.016;2022-07-23T08:25:20;2.47;;;2.00;;
71836;SDS011;59686;51.716;7.016;2022-07-23T08:27:50;4.70;;;2.30;;
71836;SDS011;59686;51.716;7.016;2022-07-23T08:30:17;3.65;;;2.10;;
71836;SDS011;59686;51.716;7.016;2022-07-23T08:32:59;4.15;;;2.30;;
71836;SDS011;59686;51.716;7.016;2022-07-23T08:35:30;4.07;;;2.20;;
71836;SDS011;59686;51.716;7.016;2022-07-23T08:38:01;2.50;;;2.00;;
71836;SDS011;59686;51.716;7.016;2022-07-23T08:40:29;2.50;;;2.08;;
71836;SDS011;59686;51.716;7.016;2022-07-23T08:42:56;4.00;;;2.28;;
71836;SDS011;59686;51.716;7.016;2022-07-23T08:45:24;1.98;;;1.88;;
71836;SDS011;59686;51.716;7.016;2022-07-23T08:47:52;3.08;;;1.98;;
71836;SDS011;59686;51.716;7.016;2022-07-23T08:50:20;3.53;;;2.10;;
71836;SDS011;59686;51.716;7.016;2022-07-23T08:52:48;3.70;;;2.20;;
71836;SDS011;59686;51.716;7.016;2022-07-23T08:55:19;6.53;;;2.63;;
71836;SDS011;59686;51.716;7.016;2022-07-23T08:57:49;4.20;;;3.30;;
71836;SDS011;59686;51.716;7.016;2022-07-23T09:00:17;7.53;;;3.08;;
71836;SDS011;59686;51.716;7.016;2022-07-23T09:02:44;7.07;;;3.20;;
71836;SDS011;59686;51.716;7.016;2022-07-23T09:05:11;5.88;;;3.22;;
71836;SDS011;59686;51.716;7.016;2022-07-23T09:10:57;29.92;;;4.63;;
71836;SDS011;59686;51.716;7.016;2022-07-23T09:13:32;30.63;;;4.43;;
71836;SDS011;59686;51.716;7.016;2022-07-23T09:18:48;10.65;;;3.38;;
71836;SDS011;59686;51.716;7.016;2022-07-23T09:24:00;9.65;;;2.97;;
71836;SDS011;59686;51.716;7.016;2022-07-23T09:26:41;3.50;;;2.50;;
71836;SDS011;59686;51.716;7.016;2022-07-23T09:29:24;3.65;;;1.90;;
71836;SDS011;59686;51.716;7.016;2022-07-23T09:31:58;4.50;;;2.42;;
71836;SDS011;59686;51.716;7.016;2022-07-23T09:34:29;3.13;;;2.20;;
71836;SDS011;59686;51.716;7.016;2022-07-23T09:36:58;3.83;;;2.45;;
71836;SDS011;59686;51.716;7.016;2022-07-23T09:39:43;5.68;;;2.60;;
71836;SDS011;59686;51.716;7.016;2022-07-23T09:44:50;3.85;;;2.97;;
71836;SDS011;59686;51.716;7.016;2022-07-23T09:47:20;3.20;;;2.50;;
71836;SDS011;59686;51.716;7.016;2022-07-23T09:52:46;2.38;;;2.15;;
71836;SDS011;59686;51.716;7.016;2022-07-23T09:55:13;5.47;;;3.00;;
71836;SDS011;59686;51.716;7.016;2022-07-23T09:57:40;4.35;;;2.60;;
71836;SDS011;59686;51.716;7.016;2022-07-23T10:00:07;5.10;;;2.88;;
71836;SDS011;59686;51.716;7.016;2022-07-23T10:02:35;4.25;;;2.55;;
71836;SDS011;59686;51.716;7.016;2022-07-23T10:05:02;7.00;;;3.28;;
71836;SDS011;59686;51.716;7.016;2022-07-23T10:07:30;4.35;;;2.85;;
71836;SDS011;59686;51.716;7.016;2022-07-23T10:10:00;212.23;;;18.00;;
71836;SDS011;59686;51.716;7.016;2022-07-23T10:12:27;227.88;;;17.48;;
71836;SDS011;59686;51.716;7.016;2022-07-23T10:15:02;194.77;;;16.08;;
71836;SDS011;59686;51.716;7.016;2022-07-23T10:17:30;110.47;;;10.75;;
71836;SDS011;59686;51.716;7.016;2022-07-23T10:19:56;72.75;;;7.38;;
71836;SDS011;59686;51.716;7.016;2022-07-23T10:22:29;55.15;;;7.72;;
71836;SDS011;59686;51.716;7.016;2022-07-23T10:36:07;9.00;;;2.90;;
71836;SDS011;59686;51.716;7.016;2022-07-23T10:38:47;5.55;;;2.38;;
71836;SDS011;59686;51.716;7.016;2022-07-23T10:41:19;4.82;;;2.65;;
71836;SDS011;59686;51.716;7.016;2022-07-23T10:44:20;5.95;;;2.72;;
71836;SDS011;59686;51.716;7.016;2022-07-23T10:46:56;4.03;;;2.15;;
71836;SDS011;59686;51.716;7.016;2022-07-23T10:49:29;5.30;;;2.22;;
71836;SDS011;59686;51.716;7.016;2022-07-23T10:57:22;2.85;;;2.05;;
71836;SDS011;59686;51.716;7.016;2022-07-23T11:02:30;3.92;;;1.85;;
71836;SDS011;59686;51.716;7.016;2022-07-23T11:05:00;3.15;;;1.95;;
71836;SDS011;59686;51.716;7.016;2022-07-23T11:07:29;4.63;;;2.05;;
71836;SDS011;59686;51.716;7.016;2022-07-23T11:09:55;3.30;;;1.83;;
71836;SDS011;59686;51.716;7.016;2022-07-23T11:14:59;2.83;;;2.10;;
71836;SDS011;59686;51.716;7.016;2022-07-23T11:17:36;2.70;;;1.90;;
71836;SDS011;59686;51.716;7.016;2022-07-23T11:20:22;1.90;;;1.70;;
71836;SDS011;59686;51.716;7.016;2022-07-23T11:22:54;2.28;;;1.92;;
71836;SDS011;59686;51.716;7.016;2022-07-23T11:27:55;3.17;;;2.20;;
71836;SDS011;59686;51.716;7.016;2022-07-23T11:30:39;3.42;;;2.00;;
71836;SDS011;59686;51.716;7.016;2022-07-23T11:35:36;3.45;;;2.10;;
71836;SDS011;59686;51.716;7.016;2022-07-23T11:38:07;3.05;;;2.00;;
71836;SDS011;59686;51.716;7.016;2022-07-23T11:40:33;4.00;;;2.08;;
71836;SDS011;59686;51.716;7.016;2022-07-23T11:43:04;3.33;;;1.98;;
71836;SDS011;59686;51.716;7.016;2022-07-23T11:45:38;4.70;;;1.92;;
71836;SDS011;59686;51.716;7.016;2022-07-23T11:48:06;2.33;;;1.67;;
71836;SDS011;59686;51.716;7.016;2022-07-23T11:50:34;2.20;;;1.90;;
71836;SDS011;59686;51.716;7.016;2022-07-23T11:53:00;2.13;;;1.65;;
71836;SDS011;59686;51.716;7.016;2022-07-23T11:57:56;2.63;;;2.20;;
71836;SDS011;59686;51.716;7.016;2022-07-23T12:00:24;4.93;;;2.15;;
71836;SDS011;59686;51.716;7.016;2022-07-23T12:02:54;2.92;;;1.80;;
71836;SDS011;59686;51.716;7.016;2022-07-23T12:05:25;6.00;;;2.25;;
71836;SDS011;59686;51.716;7.016;2022-07-23T12:07:53;2.20;;;1.98;;
71836;SDS011;59686;51.716;7.016;2022-07-23T12:10:21;2.33;;;2.00;;
71836;SDS011;59686;51.716;7.016;2022-07-23T12:12:50;2.67;;;2.03;;
71836;SDS011;59686;51.716;7.016;2022-07-23T12:15:25;4.18;;;2.20;;
71836;SDS011;59686;51.716;7.016;2022-07-23T12:17:54;3.97;;;1.95;;
71836;SDS011;59686;51.716;7.016;2022-07-23T12:20:31;2.80;;;2.00;;
71836;SDS011;59686;51.716;7.016;2022-07-23T12:23:02;4.32;;;2.08;;
71836;SDS011;59686;51.716;7.016;2022-07-23T12:25:33;4.55;;;2.20;;
71836;SDS011;59686;51.716;7.016;2022-07-23T12:33:09;3.33;;;2.35;;
71836;SDS011;59686;51.716;7.016;2022-07-23T12:38:14;3.38;;;2.25;;
71836;SDS011;59686;51.716;7.016;2022-07-23T12:43:21;6.10;;;2.30;;
71836;SDS011;59686;51.716;7.016;2022-07-23T12:48:31;2.30;;;2.10;;
71836;SDS011;59686;51.716;7.016;2022-07-23T12:53:25;5.60;;;2.53;;
71836;SDS011;59686;51.716;7.016;2022-07-23T12:56:10;3.53;;;2.75;;
71836;SDS011;59686;51.716;7.016;2022-07-23T12:58:41;3.50;;;2.15;;
71836;SDS011;59686;51.716;7.016;2022-07-23T13:01:27;4.78;;;2.70;;
71836;SDS011;59686;51.716;7.016;2022-07-23T13:06:29;2.20;;;2.00;;
71836;SDS011;59686;51.716;7.016;2022-07-23T13:09:04;3.70;;;2.50;;
71836;SDS011;59686;51.716;7.016;2022-07-23T13:11:31;3.03;;;2.35;;
71836;SDS011;59686;51.716;7.016;2022-07-23T13:13:57;4.57;;;2.58;;
71836;SDS011;59686;51.716;7.016;2022-07-23T13:16:25;3.03;;;2.20;;
71836;SDS011;59686;51.716;7.016;2022-07-23T13:18:55;2.50;;;2.30;;
71836;SDS011;59686;51.716;7.016;2022-07-23T13:21:21;3.47;;;2.40;;
71836;SDS011;59686;51.716;7.016;2022-07-23T13:23:47;2.40;;;2.20;;
71836;SDS011;59686;51.716;7.016;2022-07-23T13:26:13;3.42;;;2.33;;
71836;SDS011;59686;51.716;7.016;2022-07-23T13:28:39;3.40;;;2.20;;
71836;SDS011;59686;51.716;7.016;2022-07-23T13:31:06;6.30;;;2.42;;
71836;SDS011;59686;51.716;7.016;2022-07-23T13:33:32;3.42;;;2.10;;
71836;SDS011;59686;51.716;7.016;2022-07-23T13:35:59;3.17;;;2.40;;
71836;SDS011;59686;51.716;7.016;2022-07-23T13:38:24;2.80;;;2.15;;
71836;SDS011;59686;51.716;7.016;2022-07-23T13:40:51;4.60;;;2.38;;
71836;SDS011;59686;51.716;7.016;2022-07-23T13:43:18;4.80;;;2.50;;
71836;SDS011;59686;51.716;7.016;2022-07-23T13:45:45;51.38;;;4.55;;
71836;SDS011;59686;51.716;7.016;2022-07-23T13:48:12;70.30;;;7.95;;
71836;SDS011;59686;51.716;7.016;2022-07-23T13:50:38;56.63;;;6.45;;
71836;SDS011;59686;51.716;7.016;2022-07-23T13:53:05;29.70;;;4.40;;
71836;SDS011;59686;51.716;7.016;2022-07-23T13:55:33;23.90;;;4.13;;
71836;SDS011;59686;51.716;7.016;2022-07-23T13:57:59;64.53;;;7.47;;
71836;SDS011;59686;51.716;7.016;2022-07-23T14:00:26;58.25;;;7.93;;
71836;SDS011;59686;51.716;7.016;2022-07-23T14:02:52;37.63;;;5.22;;
71836;SDS011;59686;51.716;7.016;2022-07-23T14:05:18;37.30;;;5.25;;
71836;SDS011;59686;51.716;7.016;2022-07-23T14:10:17;59.58;;;5.88;;
71836;SDS011;59686;51.716;7.016;2022-07-23T14:12:44;57.40;;;7.15;;
71836;SDS011;59686;51.716;7.016;2022-07-23T14:15:10;45.50;;;6.30;;
71836;SDS011;59686;51.716;7.016;2022-07-23T14:17:39;25.73;;;4.97;;
71836;SDS011;59686;51.716;7.016;2022-07-23T14:20:07;410.15;;;31.65;;
71836;SDS011;59686;51.716;7.016;2022-07-23T14:22:33;228.75;;;21.20;;
71836;SDS011;59686;51.716;7.016;2022-07-23T14:24:59;147.93;;;14.77;;
71836;SDS011;59686;51.716;7.016;2022-07-23T14:27:30;93.75;;;10.60;;
71836;SDS011;59686;51.716;7.016;2022-07-23T14:29:56;57.72;;;8.23;;
71836;SDS011;59686;51.716;7.016;2022-07-23T14:32:22;43.63;;;7.30;;
71836;SDS011;59686;51.716;7.016;2022-07-23T14:34:48;48.97;;;7.63;;
71836;SDS011;59686;51.716;7.016;2022-07-23T14:37:14;27.73;;;5.75;;
71836;SDS011;59686;51.716;7.016;2022-07-23T14:39:40;30.65;;;5.47;;
71836;SDS011;59686;51.716;7.016;2022-07-23T14:42:07;16.15;;;5.20;;
71836;SDS011;59686;51.716;7.016;2022-07-23T14:44:36;12.82;;;4.00;;
71836;SDS011;59686;51.716;7.016;2022-07-23T14:47:03;7.55;;;3.58;;
71836;SDS011;59686;51.716;7.016;2022-07-23T14:49:30;7.05;;;3.40;;
71836;SDS011;59686;51.716;7.016;2022-07-23T14:51:56;4.68;;;2.97;;
71836;SDS011;59686;51.716;7.016;2022-07-23T14:54:22;5.80;;;2.90;;
71836;SDS011;59686;51.716;7.016;2022-07-23T14:56:51;4.85;;;3.00;;
71836;SDS011;59686;51.716;7.016;2022-07-23T14:59:17;3.22;;;2.60;;
71836;SDS011;59686;51.716;7.016;2022-07-23T15:01:42;3.58;;;2.50;;
71836;SDS011;59686;51.716;7.016;2022-07-23T15:04:08;4.30;;;2.80;;
71836;SDS011;59686;51.716;7.016;2022-07-23T15:06:34;3.88;;;2.53;;
71836;SDS011;59686;51.716;7.016;2022-07-23T15:09:00;4.28;;;2.70;;
71836;SDS011;59686;51.716;7.016;2022-07-23T15:11:28;2.67;;;2.47;;
71836;SDS011;59686;51.716;7.016;2022-07-23T15:13:57;4.65;;;2.72;;
71836;SDS011;59686;51.716;7.016;2022-07-23T15:16:22;5.38;;;2.80;;
71836;SDS011;59686;51.716;7.016;2022-07-23T15:18:48;3.10;;;2.50;;
71836;SDS011;59686;51.716;7.016;2022-07-23T15:21:16;4.68;;;2.80;;
71836;SDS011;59686;51.716;7.016;2022-07-23T15:23:42;3.40;;;2.63;;
71836;SDS011;59686;51.716;7.016;2022-07-23T15:26:08;3.78;;;2.35;;
71836;SDS011;59686;51.716;7.016;2022-07-23T15:28:34;3.75;;;2.92;;
71836;SDS011;59686;51.716;7.016;2022-07-23T15:31:00;3.83;;;2.92;;
71836;SDS011;59686;51.716;7.016;2022-07-23T15:33:26;5.22;;;3.05;;
71836;SDS011;59686;51.716;7.016;2022-07-23T15:35:52;3.85;;;2.90;;
71836;SDS011;59686;51.716;7.016;2022-07-23T15:38:20;5.05;;;3.28;;
71836;SDS011;59686;51.716;7.016;2022-07-23T15:40:46;4.45;;;2.67;;
71836;SDS011;59686;51.716;7.016;2022-07-23T15:43:12;3.53;;;2.50;;
71836;SDS011;59686;51.716;7.016;2022-07-23T15:45:55;3.15;;;2.72;;
71836;SDS011;59686;51.716;7.016;2022-07-23T15:48:21;3.97;;;2.67;;
71836;SDS011;59686;51.716;7.016;2022-07-23T15:50:47;7.45;;;2.85;;
71836;SDS011;59686;51.716;7.016;2022-07-23T15:53:13;4.50;;;2.83;;